Vila do Carmo do Tocantins, Brazil
Current Conditions -  °F | °C
As of 6:00 PM on Saturday 20 Dec 2014 (Local Time) from SBBE Reporting Station
Broken Clouds Broken Clouds  
Wind Chill: 84°   Ceiling: 2700
Heat Index: 91°   Visibility: 6mi
Dew Point: 73°   Wind: 7mph
Humidity: 70%   Direction: 350°N
Pressure: 29.77"   Gusts: NA
Location:  2.45°S, 49.44°W
Report Text: SBBE 202100Z 35006KT 9999 BKN027 FEW033TCU 29/23 Q1008
Loading
Personal Weather Stations






























Interactive Weather Map New forecast layout! Learn more

10-Day Weather Forecast

Advertisements
Track Severe Weather on mobile